createdAt,value
2023-04-15T00:01:53.371Z,101031.25
2023-04-15T00:04:21.004Z,101033.78
2023-04-15T00:06:54.060Z,101030.25
2023-04-15T00:09:21.638Z,101022.59
2023-04-15T00:11:48.745Z,101031.63
2023-04-15T00:14:15.873Z,101024.50
2023-04-15T00:16:44.916Z,101023.81
2023-04-15T00:19:12.399Z,101025.38
2023-04-15T00:21:39.452Z,100995.88
2023-04-15T00:24:06.647Z,101016.91
2023-04-15T00:26:33.493Z,101019.47
2023-04-15T00:29:00.575Z,101018.16
2023-04-15T00:31:27.831Z,101018.56
2023-04-15T00:33:54.729Z,101011.56
2023-04-15T00:36:21.648Z,101007.03
2023-04-15T00:38:48.477Z,101007.22
2023-04-15T00:41:15.325Z,101007.94
2023-04-15T00:43:42.460Z,100997.81
2023-04-15T00:46:10.752Z,101002.19
2023-04-15T00:48:39.135Z,101010.94
2023-04-15T00:51:07.448Z,101006.00
2023-04-15T00:53:34.363Z,101003.03
2023-04-15T00:56:01.146Z,101000.66
2023-04-15T00:58:28.359Z,101004.44
2023-04-15T01:00:56.619Z,100994.16
2023-04-15T01:03:23.997Z,101001.56
2023-04-15T01:05:51.769Z,100999.94
2023-04-15T01:08:18.970Z,100997.81
2023-04-15T01:10:45.989Z,100989.38
2023-04-15T01:13:13.058Z,100995.66
2023-04-15T01:15:40.586Z,100990.50
2023-04-15T01:18:09.475Z,100999.03
2023-04-15T01:20:36.580Z,100995.41
2023-04-15T01:23:03.623Z,100991.63
2023-04-15T01:25:34.297Z,101007.66
2023-04-15T01:28:04.301Z,100997.25
2023-04-15T01:30:34.979Z,100999.28
2023-04-15T01:33:02.098Z,100994.53
2023-04-15T01:35:29.009Z,100987.03
2023-04-15T01:38:02.695Z,100985.59
2023-04-15T01:40:29.649Z,100983.56
2023-04-15T01:42:56.776Z,100970.47
2023-04-15T01:45:23.763Z,100980.13
2023-04-15T01:47:50.870Z,100980.94
2023-04-15T01:50:17.797Z,100975.00
2023-04-15T01:52:44.885Z,100981.25
2023-04-15T01:55:11.717Z,100969.25
2023-04-15T01:57:38.454Z,100974.13
2023-04-15T02:00:07.890Z,100966.75
2023-04-15T02:02:34.868Z,100971.09
2023-04-15T02:05:01.928Z,100976.94
2023-04-15T02:07:32.656Z,100971.28
2023-04-15T02:09:59.529Z,100955.66
2023-04-15T02:12:27.481Z,100963.88
2023-04-15T02:14:54.568Z,100966.47
2023-04-15T02:17:21.433Z,100947.75
2023-04-15T02:19:48.390Z,100960.72
2023-04-15T02:22:19.050Z,100967.91
2023-04-15T02:24:49.044Z,100960.31
2023-04-15T02:27:17.376Z,100954.97
2023-04-15T02:29:46.042Z,100949.19
2023-04-15T02:32:13.816Z,100961.13
2023-04-15T02:34:42.817Z,100960.56
2023-04-15T02:37:11.602Z,100963.88
2023-04-15T02:39:38.482Z,100972.38
2023-04-15T02:42:06.342Z,100975.84
2023-04-15T02:44:34.283Z,100965.25
2023-04-15T02:47:01.256Z,100958.69
2023-04-15T02:49:30.037Z,100964.84
2023-04-15T02:51:58.476Z,100959.00
2023-04-15T02:54:25.924Z,100970.06
2023-04-15T02:56:55.550Z,100963.19
2023-04-15T02:59:22.514Z,100949.09
2023-04-15T03:01:49.683Z,100958.97
2023-04-15T03:04:17.011Z,100950.97
2023-04-15T03:06:44.205Z,100952.84
2023-04-15T03:09:11.282Z,100949.75
2023-04-15T03:11:40.955Z,100962.22
2023-04-15T03:14:07.942Z,100960.69
2023-04-15T03:16:34.768Z,100968.81
2023-04-15T03:19:02.013Z,100937.03
2023-04-15T03:21:29.046Z,100962.75
2023-04-15T03:23:56.769Z,100955.16
2023-04-15T03:26:31.881Z,100958.34
2023-04-15T03:28:59.401Z,100965.66
2023-04-15T03:31:26.769Z,100957.09
2023-04-15T03:33:53.723Z,100960.09
2023-04-15T03:36:23.270Z,100959.41
2023-04-15T03:38:50.467Z,100929.97
2023-04-15T03:41:17.732Z,100956.06
2023-04-15T03:43:44.636Z,100961.97
2023-04-15T03:46:11.623Z,100955.91
2023-04-15T03:48:38.613Z,100956.28
2023-04-15T03:51:05.610Z,100962.78
2023-04-15T03:53:32.409Z,100966.69
2023-04-15T03:55:59.309Z,100959.59
2023-04-15T03:58:26.225Z,100975.81
2023-04-15T04:00:53.378Z,100930.16
2023-04-15T04:03:20.653Z,100950.88
2023-04-15T04:05:47.820Z,100948.41
2023-04-15T04:08:16.520Z,100956.13
2023-04-15T04:10:44.606Z,100928.03
2023-04-15T04:13:11.743Z,100954.56
2023-04-15T04:15:38.663Z,100957.03
2023-04-15T04:18:05.623Z,100891.97
2023-04-15T04:20:32.673Z,100954.06
2023-04-15T04:22:59.549Z,100951.81
2023-04-15T04:25:26.523Z,100935.44
2023-04-15T04:27:53.662Z,100961.25
2023-04-15T04:30:20.809Z,100967.81
2023-04-15T04:32:50.249Z,100970.03
2023-04-15T04:35:18.312Z,100978.94
2023-04-15T04:37:45.188Z,100966.78
2023-04-15T04:40:12.619Z,100973.25
2023-04-15T04:42:40.109Z,100978.72
2023-04-15T04:45:07.730Z,100969.69
2023-04-15T04:47:34.716Z,100959.41
2023-04-15T04:50:01.676Z,100959.59
2023-04-15T04:52:29.915Z,100955.81
2023-04-15T04:54:56.922Z,100974.94
2023-04-15T04:57:23.807Z,100967.63
2023-04-15T04:59:50.552Z,100966.25
2023-04-15T05:02:17.556Z,100976.38
2023-04-15T05:04:44.459Z,100983.38
2023-04-15T05:07:11.681Z,100977.75
2023-04-15T05:09:38.956Z,100979.91
2023-04-15T05:12:06.242Z,100989.16
2023-04-15T05:14:33.513Z,100980.63
2023-04-15T05:17:01.933Z,100977.56
2023-04-15T05:19:32.008Z,100978.75
2023-04-15T05:21:58.847Z,100986.38
2023-04-15T05:24:25.693Z,100982.47
2023-04-15T05:26:52.737Z,100980.72
2023-04-15T05:29:19.691Z,100977.88
2023-04-15T05:31:46.971Z,100970.06
2023-04-15T05:34:16.082Z,100983.03
2023-04-15T05:36:43.280Z,100981.06
2023-04-15T05:39:10.155Z,100981.88
2023-04-15T05:41:37.005Z,100981.25
2023-04-15T05:44:03.885Z,100973.16
2023-04-15T05:46:31.082Z,100970.09
2023-04-15T05:49:01.304Z,100977.47
2023-04-15T05:51:28.714Z,100950.69
2023-04-15T05:53:55.927Z,100972.03
2023-04-15T05:56:22.791Z,100982.13
2023-04-15T05:58:50.522Z,100984.91
2023-04-15T06:01:18.291Z,100974.56
2023-04-15T06:03:45.341Z,100993.88
2023-04-15T06:06:12.346Z,100997.13
2023-04-15T06:08:39.234Z,100998.19
2023-04-15T06:11:06.218Z,101004.06
2023-04-15T06:13:33.233Z,101003.44
2023-04-15T06:16:00.435Z,100994.06
2023-04-15T06:18:27.370Z,101002.28
2023-04-15T06:20:54.186Z,101008.44
2023-04-15T06:23:21.678Z,100998.38
2023-04-15T06:25:51.801Z,101007.84
2023-04-15T06:28:18.671Z,101012.78
2023-04-15T06:30:45.607Z,101005.69
2023-04-15T06:33:12.770Z,101008.25
2023-04-15T06:35:39.716Z,101008.16
2023-04-15T06:38:06.699Z,101010.03
2023-04-15T06:40:34.122Z,101010.41
2023-04-15T06:43:01.148Z,101014.13
2023-04-15T06:45:28.181Z,101013.09
2023-04-15T06:47:55.050Z,101017.00
2023-04-15T06:50:22.097Z,101013.91
2023-04-15T06:52:49.241Z,101024.53
2023-04-15T06:55:16.389Z,101022.16
2023-04-15T06:57:43.312Z,101016.03
2023-04-15T07:00:12.336Z,101024.28
2023-04-15T07:02:39.506Z,101014.53
2023-04-15T07:05:07.615Z,101029.13
2023-04-15T07:07:34.505Z,101021.97
2023-04-15T07:10:02.326Z,101025.97
2023-04-15T07:12:29.327Z,101022.66
2023-04-15T07:14:56.579Z,101037.38
2023-04-15T07:17:23.288Z,101033.91
2023-04-15T07:19:50.075Z,101046.78
2023-04-15T07:22:17.025Z,101025.03
2023-04-15T07:24:44.135Z,101045.91
2023-04-15T07:27:11.116Z,101050.44
2023-04-15T07:29:38.152Z,101051.38
2023-04-15T07:32:05.439Z,101056.84
2023-04-15T07:34:32.682Z,101056.19
2023-04-15T07:36:59.686Z,101053.59
2023-04-15T07:39:26.838Z,101064.84
2023-04-15T07:41:53.663Z,101053.63
2023-04-15T07:44:20.723Z,101060.31
2023-04-15T07:46:48.378Z,101058.25
2023-04-15T07:49:16.973Z,101059.63
2023-04-15T07:51:44.678Z,101064.06
2023-04-15T07:54:11.945Z,101063.34
2023-04-15T07:56:38.975Z,101070.63
2023-04-15T07:59:06.744Z,101066.97
2023-04-15T08:01:33.910Z,101067.84
2023-04-15T08:04:01.055Z,101076.13
2023-04-15T08:06:28.017Z,101077.72
2023-04-15T08:08:55.500Z,101071.75
2023-04-15T08:11:23.589Z,101066.50
2023-04-15T08:13:50.606Z,101073.88
2023-04-15T08:16:23.082Z,101070.56
2023-04-15T08:18:51.786Z,101067.78
2023-04-15T08:21:20.547Z,101081.19
2023-04-15T08:23:50.410Z,101076.91
2023-04-15T08:26:18.078Z,101078.25
2023-04-15T08:28:46.825Z,101083.69
2023-04-15T08:31:15.848Z,101086.47
2023-04-15T08:33:43.306Z,101073.94
2023-04-15T08:36:10.758Z,101067.81
2023-04-15T08:38:37.928Z,101087.47
2023-04-15T08:41:13.026Z,101093.56
2023-04-15T08:43:51.992Z,101086.63
2023-04-15T08:46:19.905Z,101094.41
2023-04-15T08:48:48.312Z,101088.81
2023-04-15T08:51:16.598Z,101089.78
2023-04-15T08:53:45.158Z,101087.13
2023-04-15T08:56:14.487Z,101101.94
2023-04-15T08:58:41.938Z,101105.16
2023-04-15T09:01:08.969Z,101112.13
2023-04-15T09:03:37.113Z,101109.72
2023-04-15T09:06:06.177Z,101109.22
2023-04-15T09:08:35.197Z,101107.78
2023-04-15T09:11:05.831Z,101119.28
2023-04-15T09:13:32.704Z,101113.09
2023-04-15T09:16:04.155Z,101119.00
2023-04-15T09:18:34.063Z,101115.19
2023-04-15T09:21:09.288Z,101126.44
2023-04-15T09:23:37.367Z,101127.81
2023-04-15T09:26:05.410Z,101129.22
2023-04-15T09:28:32.417Z,101128.34
2023-04-15T09:31:00.635Z,101118.22
2023-04-15T09:33:29.382Z,101108.72
2023-04-15T09:36:04.809Z,101126.03
2023-04-15T09:38:32.675Z,101116.78
2023-04-15T09:41:00.259Z,101116.19
2023-04-15T09:43:40.915Z,101119.94
2023-04-15T09:46:07.992Z,101120.63
2023-04-15T09:48:34.786Z,101126.38
2023-04-15T09:51:02.407Z,101125.56
2023-04-15T09:53:31.768Z,101139.19
2023-04-15T09:56:03.433Z,101120.06
2023-04-15T09:58:33.856Z,101134.25
2023-04-15T10:01:03.351Z,101077.72
2023-04-15T10:03:32.575Z,101135.84
2023-04-15T10:06:01.070Z,101132.97
2023-04-15T10:08:30.305Z,101130.56
2023-04-15T10:10:58.004Z,101133.38
2023-04-15T10:13:33.079Z,101135.09
2023-04-15T10:16:12.121Z,101143.41
2023-04-15T10:18:44.310Z,101142.22
2023-04-15T10:21:14.203Z,101145.47
2023-04-15T10:23:44.662Z,101150.50
2023-04-15T10:26:13.032Z,101148.53
2023-04-15T10:28:40.161Z,101140.81
2023-04-15T10:31:07.916Z,101148.69
2023-04-15T10:33:36.017Z,101145.06
2023-04-15T10:36:03.246Z,101144.53
2023-04-15T10:38:36.098Z,101150.34
2023-04-15T10:41:34.892Z,101146.41
2023-04-15T10:44:04.942Z,101150.09
2023-04-15T10:46:39.501Z,101156.53
2023-04-15T10:49:14.150Z,101149.53
2023-04-15T10:51:43.409Z,101149.88
2023-04-15T10:54:30.509Z,101141.88
2023-04-15T10:57:06.861Z,101147.16
2023-04-15T10:59:37.344Z,101145.41
2023-04-15T11:02:06.926Z,101144.69
2023-04-15T11:04:52.241Z,101143.50
2023-04-15T11:07:47.416Z,101151.44
2023-04-15T11:10:14.403Z,101146.56
2023-04-15T11:12:42.213Z,101144.34
2023-04-15T11:15:36.623Z,101131.66
2023-04-15T11:18:20.306Z,101148.03
2023-04-15T11:20:50.750Z,101141.38
2023-04-15T11:23:32.326Z,101141.59
2023-04-15T11:26:01.123Z,101134.19
2023-04-15T11:28:29.616Z,101146.00
2023-04-15T11:30:57.103Z,101150.28
2023-04-15T11:33:24.848Z,101157.34
2023-04-15T11:35:55.027Z,101161.16
2023-04-15T11:38:22.693Z,101161.75
2023-04-15T11:40:51.533Z,101163.59
2023-04-15T11:43:23.581Z,101165.91
2023-04-15T11:45:58.405Z,101172.72
2023-04-15T11:48:30.986Z,101169.91
2023-04-15T11:51:07.944Z,101166.81
2023-04-15T11:53:43.658Z,101172.28
2023-04-15T11:56:21.315Z,101171.59
2023-04-15T11:58:51.075Z,101168.78
2023-04-15T12:01:18.879Z,101177.84
2023-04-15T12:03:49.934Z,101171.31
2023-04-15T12:06:19.727Z,101174.81
2023-04-15T12:08:56.793Z,101186.13
2023-04-15T12:11:26.700Z,101188.19
2023-04-15T12:14:06.137Z,101190.75
2023-04-15T12:16:48.403Z,101196.53
2023-04-15T12:19:30.238Z,101207.72
2023-04-15T12:22:04.335Z,101207.88
2023-04-15T12:24:36.060Z,101208.38
2023-04-15T12:27:10.050Z,101204.31
2023-04-15T12:29:39.012Z,101207.88
2023-04-15T12:32:08.553Z,101217.00
2023-04-15T12:34:37.611Z,101226.94
2023-04-15T12:37:06.545Z,101226.41
2023-04-15T12:39:36.776Z,101227.63
2023-04-15T12:42:04.741Z,101234.63
2023-04-15T12:44:32.005Z,101238.75
2023-04-15T12:47:00.240Z,101238.16
2023-04-15T12:49:28.069Z,101232.25
2023-04-15T12:51:57.420Z,101229.63
2023-04-15T12:54:24.480Z,101230.88
2023-04-15T12:56:51.858Z,101242.19
2023-04-15T12:59:18.872Z,101239.03
2023-04-15T13:01:47.754Z,101227.16
2023-04-15T13:04:16.591Z,101246.16
2023-04-15T13:06:44.371Z,101246.72
2023-04-15T13:09:11.291Z,101253.03
2023-04-15T13:11:38.223Z,101260.09
2023-04-15T13:14:07.465Z,101254.34
2023-04-15T13:16:35.224Z,101263.78
2023-04-15T13:19:03.851Z,101265.00
2023-04-15T13:21:32.381Z,101250.63
2023-04-15T13:23:59.916Z,101253.94
2023-04-15T13:26:26.821Z,101241.50
2023-04-15T13:28:53.972Z,101256.00
2023-04-15T13:31:21.318Z,101259.16
2023-04-15T13:33:48.219Z,101270.56
2023-04-15T13:36:15.044Z,101260.00
2023-04-15T13:38:41.993Z,101266.50
2023-04-15T13:41:08.750Z,101265.75
2023-04-15T13:43:36.069Z,101275.84
2023-04-15T13:46:02.972Z,101275.41
2023-04-15T13:48:29.872Z,101278.38
2023-04-15T13:50:56.794Z,101279.38
2023-04-15T13:53:33.838Z,101284.16
2023-04-15T13:56:09.266Z,101280.00
2023-04-15T13:58:36.954Z,101295.66
2023-04-15T14:01:05.746Z,101289.69
2023-04-15T14:03:34.029Z,101299.53
2023-04-15T14:06:01.318Z,101309.03
2023-04-15T14:08:28.232Z,101297.38
2023-04-15T14:10:55.107Z,101307.44
2023-04-15T14:13:22.088Z,101285.31
2023-04-15T14:15:49.016Z,101293.34
2023-04-15T14:18:15.903Z,101307.19
2023-04-15T14:20:42.949Z,101317.47
2023-04-15T14:23:10.108Z,101313.31
2023-04-15T14:25:39.411Z,101301.25
2023-04-15T14:28:06.488Z,101317.97
2023-04-15T14:30:33.578Z,101313.47
2023-04-15T14:33:00.662Z,101330.75
2023-04-15T14:35:27.967Z,101333.25
2023-04-15T14:37:55.554Z,101338.13
2023-04-15T14:40:23.025Z,101324.16
2023-04-15T14:42:50.003Z,101342.00
2023-04-15T14:45:17.940Z,101343.75
2023-04-15T14:47:45.323Z,101335.91
2023-04-15T14:50:12.506Z,101335.13
2023-04-15T14:52:39.672Z,101359.81
2023-04-15T14:55:12.434Z,101359.00
2023-04-15T14:57:40.885Z,101341.03
2023-04-15T15:00:10.126Z,101360.00
2023-04-15T15:02:40.300Z,101371.78
2023-04-15T15:05:08.742Z,101373.28
2023-04-15T15:07:37.453Z,101374.03
2023-04-15T15:10:05.551Z,101352.31
2023-04-15T15:12:33.304Z,101365.69
2023-04-15T15:15:01.622Z,101370.47
2023-04-15T15:17:30.174Z,101367.16
2023-04-15T15:19:57.616Z,101374.56
2023-04-15T15:22:26.008Z,101384.31
2023-04-15T15:24:53.699Z,101394.66
2023-04-15T15:27:20.844Z,101386.91
2023-04-15T15:29:47.917Z,101385.25
2023-04-15T15:32:14.821Z,101398.44
2023-04-15T15:34:41.713Z,101402.19
2023-04-15T15:37:08.645Z,101405.50
2023-04-15T15:39:36.092Z,101399.34
2023-04-15T15:42:03.166Z,101407.81
2023-04-15T15:44:30.029Z,101411.44
2023-04-15T15:46:57.025Z,101406.88
2023-04-15T15:49:25.604Z,101410.75
2023-04-15T15:51:52.688Z,101420.25
2023-04-15T15:54:19.565Z,101420.03
2023-04-15T15:56:46.550Z,101426.75
2023-04-15T15:59:13.485Z,101425.94
2023-04-15T16:01:40.603Z,101419.31
2023-04-15T16:04:07.969Z,101425.47
2023-04-15T16:06:35.368Z,101435.78
2023-04-15T16:09:02.946Z,101446.56
2023-04-15T16:11:30.494Z,101440.47
2023-04-15T16:13:57.479Z,101452.13
2023-04-15T16:16:24.643Z,101446.03
2023-04-15T16:18:51.699Z,101462.38
2023-04-15T16:21:19.785Z,101462.44
2023-04-15T16:23:46.785Z,101462.09
2023-04-15T16:26:13.764Z,101466.72
2023-04-15T16:28:40.851Z,101477.59
2023-04-15T16:31:07.863Z,101486.13
2023-04-15T16:33:34.952Z,101483.34
2023-04-15T16:36:01.969Z,101478.56
2023-04-15T16:38:28.807Z,101485.09
2023-04-15T16:40:59.964Z,101497.47
2023-04-15T16:43:27.297Z,101496.31
2023-04-15T16:45:54.461Z,101501.41
2023-04-15T16:48:21.651Z,101503.03
2023-04-15T16:50:49.473Z,101500.25
2023-04-15T16:53:16.650Z,101502.22
2023-04-15T16:55:43.755Z,101508.97
2023-04-15T16:58:10.563Z,101512.22
2023-04-15T17:00:37.646Z,101516.03
2023-04-15T17:03:06.085Z,101510.06
2023-04-15T17:05:33.433Z,101517.03
2023-04-15T17:08:00.433Z,101520.81
2023-04-15T17:10:28.007Z,101525.56
2023-04-15T17:12:58.394Z,101523.41
2023-04-15T17:15:26.333Z,101524.69
2023-04-15T17:17:53.399Z,101533.44
2023-04-15T17:20:20.483Z,101539.09
2023-04-15T17:22:48.315Z,101532.19
2023-04-15T17:25:15.402Z,101540.94
2023-04-15T17:27:42.484Z,101541.06
2023-04-15T17:30:09.900Z,101537.22
2023-04-15T17:32:37.519Z,101545.94
2023-04-15T17:35:06.653Z,101555.63
2023-04-15T17:37:34.514Z,101544.59
2023-04-15T17:40:01.621Z,101547.41
2023-04-15T17:42:28.910Z,101550.31
2023-04-15T17:44:55.836Z,101552.91
2023-04-15T17:47:22.697Z,101563.19
2023-04-15T17:49:49.665Z,101563.47
2023-04-15T17:52:16.678Z,101572.69
2023-04-15T17:54:43.667Z,101564.31
2023-04-15T17:57:10.879Z,101564.38
2023-04-15T17:59:37.693Z,101562.66
2023-04-15T18:02:04.586Z,101563.22
2023-04-15T18:04:31.945Z,101568.34
2023-04-15T18:06:58.954Z,101583.25
2023-04-15T18:09:25.988Z,101584.78
2023-04-15T18:11:53.027Z,101582.69
2023-04-15T18:14:31.104Z,101589.94
2023-04-15T18:17:00.833Z,101591.28
2023-04-15T18:19:30.549Z,101594.31
2023-04-15T18:22:00.758Z,101605.06
2023-04-15T18:24:28.340Z,101606.25
2023-04-15T18:26:56.770Z,101608.41
2023-04-15T18:29:23.864Z,101610.56
2023-04-15T18:31:51.362Z,101624.63
2023-04-15T18:34:18.567Z,101625.25
2023-04-15T18:36:46.516Z,101615.75
2023-04-15T18:39:13.680Z,101608.41
2023-04-15T18:41:40.728Z,101639.94
2023-04-15T18:44:07.648Z,101651.53
2023-04-15T18:46:34.517Z,101628.28
2023-04-15T18:49:01.618Z,101654.13
2023-04-15T18:51:28.682Z,101653.81
2023-04-15T18:53:55.940Z,101655.88
2023-04-15T18:56:23.014Z,101670.78
2023-04-15T18:59:27.476Z,101675.94
2023-04-15T19:01:36.973Z,101674.97
2023-04-15T19:04:04.038Z,101680.28
2023-04-15T19:06:31.312Z,101683.13
2023-04-15T19:08:59.551Z,101682.00
2023-04-15T19:11:26.631Z,101686.44
2023-04-15T19:13:53.786Z,101685.81
2023-04-15T19:16:21.300Z,101696.78
2023-04-15T19:18:48.297Z,101692.84
2023-04-15T19:21:16.071Z,101696.00
2023-04-15T19:23:43.469Z,101702.19
2023-04-15T19:26:12.004Z,101720.47
2023-04-15T19:28:39.461Z,101710.31
2023-04-15T19:31:06.900Z,101723.19
2023-04-15T19:33:34.386Z,101724.34
2023-04-15T19:36:04.385Z,101728.72
2023-04-15T19:38:35.255Z,101727.22
2023-04-15T19:41:02.319Z,101719.19
2023-04-15T19:43:30.378Z,101736.88
2023-04-15T19:45:57.203Z,101741.25
2023-04-15T19:48:25.186Z,101734.41
2023-04-15T19:50:52.212Z,101738.38
2023-04-15T19:53:19.193Z,101742.97
2023-04-15T19:55:47.527Z,101742.22
2023-04-15T19:58:14.667Z,101748.16
2023-04-15T20:00:41.657Z,101747.72
2023-04-15T20:03:08.628Z,101751.03
2023-04-15T20:05:35.928Z,101756.06
2023-04-15T20:08:03.436Z,101756.16
2023-04-15T20:10:31.943Z,101755.19
2023-04-15T20:12:59.302Z,101764.78
2023-04-15T20:15:26.727Z,101758.13
2023-04-15T20:17:53.833Z,101768.69
2023-04-15T20:20:21.091Z,101768.25
2023-04-15T20:22:48.611Z,101772.19
2023-04-15T20:25:15.506Z,101773.69
2023-04-15T20:27:42.552Z,101787.53
2023-04-15T20:30:09.813Z,101789.28
2023-04-15T20:32:37.071Z,101779.25
2023-04-15T20:35:05.370Z,101787.97
2023-04-15T20:37:33.810Z,101779.25
2023-04-15T20:40:01.550Z,101788.50
2023-04-15T20:42:32.193Z,101780.91
2023-04-15T20:44:58.999Z,101795.75
2023-04-15T20:47:26.376Z,101783.19
2023-04-15T20:49:54.227Z,101794.88
2023-04-15T20:52:21.428Z,101791.88
2023-04-15T20:54:48.302Z,101780.03
2023-04-15T20:57:15.301Z,101794.34
2023-04-15T20:59:42.137Z,101789.22
2023-04-15T21:02:09.253Z,101797.66
2023-04-15T21:04:38.246Z,101795.06
2023-04-15T21:07:05.322Z,101802.34
2023-04-15T21:09:32.380Z,101799.06
2023-04-15T21:12:01.907Z,101804.41
2023-04-15T21:14:29.829Z,101802.44
2023-04-15T21:16:58.275Z,101798.06
2023-04-15T21:19:25.485Z,101806.00
2023-04-15T21:21:52.392Z,101810.72
2023-04-15T21:24:19.318Z,101813.28
2023-04-15T21:26:46.071Z,101810.03
2023-04-15T21:29:13.230Z,101813.84
2023-04-15T21:31:41.042Z,101817.56
2023-04-15T21:34:08.519Z,101821.13
2023-04-15T21:36:36.180Z,101824.56
2023-04-15T21:39:03.816Z,101821.13
2023-04-15T21:41:31.323Z,101824.56
2023-04-15T21:43:58.434Z,101827.16
2023-04-15T21:46:32.864Z,101829.31
2023-04-15T21:49:02.547Z,101835.72
2023-04-15T21:51:29.461Z,101839.13
2023-04-15T21:53:56.855Z,101837.13
2023-04-15T21:56:24.888Z,101843.22
2023-04-15T21:58:57.201Z,101851.91
2023-04-15T22:01:24.773Z,101851.63
2023-04-15T22:03:52.553Z,101848.22
2023-04-15T22:06:19.864Z,101849.41
2023-04-15T22:08:56.158Z,101849.63
2023-04-15T22:11:30.636Z,101854.94
2023-04-15T22:13:58.912Z,101856.69
2023-04-15T22:16:26.554Z,101856.06
2023-04-15T22:18:53.828Z,101863.69
2023-04-15T22:21:20.947Z,101852.31
2023-04-15T22:23:50.143Z,101858.06
2023-04-15T22:26:17.248Z,101870.34
2023-04-15T22:28:44.253Z,101868.16
2023-04-15T22:31:11.590Z,101859.84
2023-04-15T22:33:39.202Z,101862.06
2023-04-15T22:36:06.531Z,101859.59
2023-04-15T22:38:33.570Z,101867.72
2023-04-15T22:41:00.843Z,101845.72
2023-04-15T22:43:27.955Z,101874.81
2023-04-15T22:45:55.329Z,101874.22
2023-04-15T22:48:22.878Z,101870.41
2023-04-15T22:50:50.162Z,101879.56
2023-04-15T22:53:17.984Z,101883.69
2023-04-15T22:55:47.248Z,101884.34
2023-04-15T22:58:15.186Z,101888.38
2023-04-15T23:00:42.470Z,101893.00
2023-04-15T23:03:09.710Z,101895.47
2023-04-15T23:05:37.077Z,101902.13
2023-04-15T23:08:03.997Z,101899.56
2023-04-15T23:10:30.881Z,101900.13
2023-04-15T23:12:57.903Z,101907.59
2023-04-15T23:15:24.993Z,101904.28
2023-04-15T23:17:52.126Z,101908.50
2023-04-15T23:20:19.411Z,101911.25
2023-04-15T23:22:46.492Z,101887.41
2023-04-15T23:25:13.666Z,101902.69
2023-04-15T23:27:40.552Z,101914.59
2023-04-15T23:30:08.079Z,101908.13
2023-04-15T23:32:35.243Z,101899.25
2023-04-15T23:35:02.298Z,101910.88
2023-04-15T23:37:31.839Z,101910.97
2023-04-15T23:39:58.684Z,101902.69
2023-04-15T23:42:26.217Z,101907.16
2023-04-15T23:44:53.228Z,101907.69
2023-04-15T23:47:20.032Z,101905.91
2023-04-15T23:49:47.318Z,101919.28
2023-04-15T23:52:14.191Z,101920.31
2023-04-15T23:54:41.312Z,101919.28
2023-04-15T23:57:08.402Z,101927.63
2023-04-15T23:59:35.195Z,101925.69
